createdAt,value
2022-11-27T00:01:18.019Z,100.00
2022-11-27T00:03:44.670Z,100.00
2022-11-27T00:06:16.255Z,100.00
2022-11-27T00:08:44.114Z,100.00
2022-11-27T00:11:13.529Z,100.00
2022-11-27T00:13:40.679Z,100.00
2022-11-27T00:16:08.040Z,100.00
2022-11-27T00:18:34.913Z,100.00
2022-11-27T00:21:13.738Z,100.00
2022-11-27T00:23:40.852Z,100.00
2022-11-27T00:26:07.763Z,100.00
2022-11-27T00:28:35.152Z,100.00
2022-11-27T00:31:07.508Z,100.00
2022-11-27T00:33:34.633Z,100.00
2022-11-27T00:36:06.048Z,100.00
2022-11-27T00:38:38.329Z,100.00
2022-11-27T00:41:07.707Z,100.00
2022-11-27T00:43:43.479Z,100.00
2022-11-27T00:46:12.951Z,100.00
2022-11-27T00:48:39.565Z,100.00
2022-11-27T00:51:08.465Z,100.00
2022-11-27T00:53:35.431Z,100.00
2022-11-27T00:56:02.252Z,100.00
2022-11-27T00:58:30.164Z,100.00
2022-11-27T01:00:58.851Z,100.00
2022-11-27T01:03:26.445Z,100.00
2022-11-27T01:05:52.949Z,100.00
2022-11-27T01:08:20.271Z,100.00
2022-11-27T01:10:55.189Z,100.00
2022-11-27T01:13:30.553Z,100.00
2022-11-27T01:16:00.901Z,100.00
2022-11-27T01:18:27.773Z,100.00
2022-11-27T01:20:55.220Z,100.00
2022-11-27T01:23:22.795Z,100.00
2022-11-27T01:25:49.838Z,100.00
2022-11-27T01:28:17.038Z,100.00
2022-11-27T01:30:43.490Z,100.00
2022-11-27T01:33:09.974Z,100.00
2022-11-27T01:35:36.449Z,100.00
2022-11-27T01:38:03.532Z,100.00
2022-11-27T01:40:30.048Z,100.00
2022-11-27T01:42:56.579Z,100.00
2022-11-27T01:45:23.205Z,100.00
2022-11-27T01:47:57.316Z,100.00
2022-11-27T01:50:31.406Z,100.00
2022-11-27T01:53:02.988Z,100.00
2022-11-27T01:55:53.912Z,100.00
2022-11-27T01:58:25.383Z,100.00
2022-11-27T02:00:52.143Z,100.00
2022-11-27T02:03:18.952Z,100.00
2022-11-27T02:05:45.787Z,100.00
2022-11-27T02:08:16.198Z,100.00
2022-11-27T02:11:05.281Z,100.00
2022-11-27T02:13:58.936Z,100.00
2022-11-27T02:16:52.885Z,100.00
2022-11-27T02:19:55.463Z,100.00
2022-11-27T02:22:46.946Z,100.00
2022-11-27T02:25:28.562Z,100.00
2022-11-27T02:28:29.077Z,100.00
2022-11-27T02:31:05.813Z,100.00
2022-11-27T02:33:35.298Z,100.00
2022-11-27T02:36:09.624Z,100.00
2022-11-27T02:38:44.557Z,100.00
2022-11-27T02:41:24.819Z,100.00
2022-11-27T02:43:53.175Z,100.00
2022-11-27T02:46:20.742Z,100.00
2022-11-27T02:48:55.417Z,100.00
2022-11-27T02:51:39.067Z,100.00
2022-11-27T02:54:10.037Z,100.00
2022-11-27T02:56:38.640Z,100.00
2022-11-27T02:59:09.297Z,100.00
2022-11-27T03:01:52.054Z,100.00
2022-11-27T03:04:22.954Z,100.00
2022-11-27T03:06:54.402Z,100.00
2022-11-27T03:09:28.744Z,100.00
2022-11-27T03:11:55.874Z,100.00
2022-11-27T03:14:24.743Z,100.00
2022-11-27T03:17:05.912Z,100.00
2022-11-27T03:19:43.007Z,100.00
2022-11-27T03:22:10.918Z,100.00
2022-11-27T03:24:37.632Z,100.00
2022-11-27T03:27:05.293Z,100.00
2022-11-27T03:29:41.234Z,100.00
2022-11-27T03:32:07.889Z,100.00
2022-11-27T03:34:35.385Z,100.00
2022-11-27T03:37:02.384Z,100.00
2022-11-27T03:39:30.276Z,100.00
2022-11-27T03:42:24.492Z,100.00
2022-11-27T03:45:14.140Z,100.00
2022-11-27T03:48:06.609Z,100.00
2022-11-27T03:50:57.500Z,100.00
2022-11-27T03:54:01.166Z,100.00
2022-11-27T03:56:39.009Z,100.00
2022-11-27T03:59:25.791Z,100.00
2022-11-27T04:01:52.384Z,100.00
2022-11-27T04:04:18.948Z,100.00
2022-11-27T04:06:45.797Z,100.00
2022-11-27T04:09:12.413Z,100.00
2022-11-27T04:11:38.909Z,100.00
2022-11-27T04:14:05.839Z,100.00
2022-11-27T04:16:32.403Z,100.00
2022-11-27T04:18:58.945Z,100.00
2022-11-27T04:21:25.436Z,100.00
2022-11-27T04:23:51.895Z,100.00
2022-11-27T04:26:18.371Z,100.00
2022-11-27T04:28:44.833Z,100.00
2022-11-27T04:31:11.353Z,100.00
2022-11-27T04:33:38.024Z,100.00
2022-11-27T04:36:04.842Z,100.00
2022-11-27T04:38:31.343Z,100.00
2022-11-27T04:40:57.982Z,100.00
2022-11-27T04:43:24.465Z,100.00
2022-11-27T04:45:50.995Z,100.00
2022-11-27T04:48:17.553Z,100.00
2022-11-27T04:50:44.026Z,100.00
2022-11-27T04:53:10.474Z,100.00
2022-11-27T04:55:36.968Z,100.00
2022-11-27T04:58:03.692Z,100.00
2022-11-27T05:00:30.220Z,100.00
2022-11-27T05:02:56.821Z,100.00
2022-11-27T05:05:23.438Z,100.00
2022-11-27T05:07:50.040Z,100.00
2022-11-27T05:10:16.652Z,100.00
2022-11-27T05:12:43.175Z,100.00
2022-11-27T05:15:09.829Z,100.00
2022-11-27T05:17:36.356Z,100.00
2022-11-27T05:20:03.614Z,100.00
2022-11-27T05:22:30.139Z,100.00
2022-11-27T05:24:56.595Z,100.00
2022-11-27T05:27:23.152Z,100.00
2022-11-27T05:29:49.636Z,100.00
2022-11-27T05:32:16.195Z,100.00
2022-11-27T05:34:42.941Z,100.00
2022-11-27T05:37:09.685Z,100.00
2022-11-27T05:39:36.242Z,100.00
2022-11-27T05:42:02.722Z,100.00
2022-11-27T05:44:29.357Z,100.00
2022-11-27T05:46:57.117Z,100.00
2022-11-27T05:49:23.641Z,100.00
2022-11-27T05:51:51.642Z,100.00
2022-11-27T05:54:19.138Z,100.00
2022-11-27T05:56:45.780Z,100.00
2022-11-27T05:59:12.634Z,100.00
2022-11-27T06:01:39.357Z,100.00
2022-11-27T06:04:05.923Z,100.00
2022-11-27T06:06:32.432Z,100.00
2022-11-27T06:08:58.909Z,100.00
2022-11-27T06:11:25.557Z,100.00
2022-11-27T06:13:52.029Z,100.00
2022-11-27T06:16:21.515Z,100.00
2022-11-27T06:18:52.468Z,100.00
2022-11-27T06:21:19.591Z,100.00
2022-11-27T06:23:46.400Z,100.00
2022-11-27T06:26:27.704Z,100.00
2022-11-27T06:28:55.826Z,100.00
2022-11-27T06:31:26.320Z,100.00
2022-11-27T06:33:54.224Z,100.00
2022-11-27T06:36:21.974Z,100.00
2022-11-27T06:38:48.526Z,100.00
2022-11-27T06:41:21.078Z,100.00
2022-11-27T06:43:48.008Z,100.00
2022-11-27T06:46:16.973Z,100.00
2022-11-27T06:48:45.397Z,100.00
2022-11-27T06:51:14.342Z,100.00
2022-11-27T06:53:41.551Z,100.00
2022-11-27T06:56:10.484Z,100.00
2022-11-27T06:58:37.473Z,100.00
2022-11-27T07:01:07.390Z,100.00
2022-11-27T07:03:34.517Z,100.00
2022-11-27T07:06:03.400Z,100.00
2022-11-27T07:08:30.532Z,100.00
2022-11-27T07:11:04.911Z,100.00
2022-11-27T07:13:31.757Z,100.00
2022-11-27T07:16:06.896Z,100.00
2022-11-27T07:18:39.001Z,100.00
2022-11-27T07:21:05.772Z,100.00
2022-11-27T07:23:32.605Z,100.00
2022-11-27T07:25:59.464Z,100.00
2022-11-27T07:28:26.265Z,100.00
2022-11-27T07:30:56.844Z,100.00
2022-11-27T07:33:25.382Z,100.00
2022-11-27T07:36:03.762Z,100.00
2022-11-27T07:38:30.319Z,100.00
2022-11-27T07:41:00.396Z,100.00
2022-11-27T07:43:27.572Z,100.00
2022-11-27T07:45:54.266Z,100.00
2022-11-27T07:48:20.875Z,100.00
2022-11-27T07:50:47.444Z,100.00
2022-11-27T07:53:14.034Z,100.00
2022-11-27T07:55:41.905Z,100.00
2022-11-27T07:58:08.818Z,100.00
2022-11-27T08:00:36.002Z,100.00
2022-11-27T08:03:03.262Z,100.00
2022-11-27T08:05:30.461Z,100.00
2022-11-27T08:08:00.017Z,100.00
2022-11-27T08:10:26.979Z,100.00
2022-11-27T08:12:53.549Z,100.00
2022-11-27T08:15:20.149Z,100.00
2022-11-27T08:17:46.766Z,100.00
2022-11-27T08:20:13.442Z,100.00
2022-11-27T08:22:40.196Z,100.00
2022-11-27T08:25:07.397Z,100.00
2022-11-27T08:27:34.101Z,100.00
2022-11-27T08:30:00.915Z,100.00
2022-11-27T08:32:33.558Z,100.00
2022-11-27T08:35:00.125Z,100.00
2022-11-27T08:37:26.569Z,100.00
2022-11-27T08:39:53.138Z,100.00
2022-11-27T08:42:19.606Z,100.00
2022-11-27T08:44:46.235Z,100.00
2022-11-27T08:47:15.438Z,100.00
2022-11-27T08:49:46.093Z,100.00
2022-11-27T08:52:13.236Z,100.00
2022-11-27T08:54:40.106Z,100.00
2022-11-27T08:57:06.784Z,100.00
2022-11-27T08:59:33.497Z,100.00
2022-11-27T09:01:59.973Z,100.00
2022-11-27T09:04:26.524Z,100.00
2022-11-27T09:06:58.147Z,100.00
2022-11-27T09:09:25.356Z,100.00
2022-11-27T09:11:54.380Z,100.00
2022-11-27T09:14:20.863Z,98.32
2022-11-27T09:16:47.521Z,97.82
2022-11-27T09:19:14.001Z,98.88
2022-11-27T09:21:40.535Z,98.62
2022-11-27T09:24:07.255Z,97.58
2022-11-27T09:26:33.711Z,98.44
2022-11-27T09:29:00.267Z,100.00
2022-11-27T09:31:27.533Z,100.00
2022-11-27T09:33:54.458Z,100.00
2022-11-27T09:36:24.238Z,100.00
2022-11-27T09:38:51.324Z,99.55
2022-11-27T09:41:39.699Z,99.43
2022-11-27T09:44:28.180Z,97.34
2022-11-27T09:46:57.007Z,98.47
2022-11-27T09:49:34.394Z,95.78
2022-11-27T09:52:10.046Z,95.30
2022-11-27T09:54:52.489Z,96.91
2022-11-27T09:57:27.783Z,97.04
2022-11-27T09:59:55.667Z,97.31
2022-11-27T10:02:31.823Z,99.14
2022-11-27T10:05:16.627Z,93.20
2022-11-27T10:08:07.029Z,91.32
2022-11-27T10:10:33.875Z,90.22
2022-11-27T10:13:07.768Z,85.63
2022-11-27T10:15:43.294Z,83.86
2022-11-27T10:18:24.700Z,82.16
2022-11-27T10:20:57.752Z,85.97
2022-11-27T10:23:46.526Z,86.89
2022-11-27T10:26:41.142Z,88.76
2022-11-27T10:29:17.595Z,90.94
2022-11-27T10:31:57.256Z,92.01
2022-11-27T10:34:48.543Z,87.67
2022-11-27T10:37:23.593Z,81.87
2022-11-27T10:39:56.315Z,78.97
2022-11-27T10:42:31.861Z,79.68
2022-11-27T10:45:05.191Z,79.64
2022-11-27T10:47:33.822Z,82.94
2022-11-27T10:50:00.911Z,79.38
2022-11-27T10:52:27.414Z,81.12
2022-11-27T10:55:02.147Z,83.43
2022-11-27T10:57:57.364Z,80.06
2022-11-27T11:00:25.250Z,83.66
2022-11-27T11:03:03.564Z,82.10
2022-11-27T11:05:41.341Z,82.75
2022-11-27T11:08:19.820Z,83.29
2022-11-27T11:10:49.363Z,82.40
2022-11-27T11:13:17.886Z,79.43
2022-11-27T11:16:06.983Z,76.50
2022-11-27T11:18:43.581Z,76.34
2022-11-27T11:21:30.580Z,76.39
2022-11-27T11:24:05.165Z,77.54
2022-11-27T11:26:39.031Z,81.20
2022-11-27T11:29:19.170Z,81.15
2022-11-27T11:31:45.969Z,82.30
2022-11-27T11:34:43.978Z,75.65
2022-11-27T11:37:40.439Z,77.32
2022-11-27T11:40:20.227Z,74.06
2022-11-27T11:42:59.214Z,74.94
2022-11-27T11:45:31.203Z,76.21
2022-11-27T11:48:03.900Z,74.48
2022-11-27T11:50:37.182Z,73.14
2022-11-27T11:53:32.024Z,73.95
2022-11-27T11:56:05.276Z,74.56
2022-11-27T11:58:40.446Z,74.31
2022-11-27T12:01:29.344Z,74.13
2022-11-27T12:03:58.650Z,76.75
2022-11-27T12:07:03.329Z,77.08
2022-11-27T12:09:48.024Z,79.40
2022-11-27T12:12:26.650Z,77.94
2022-11-27T12:15:14.386Z,77.97
2022-11-27T12:18:05.244Z,79.38
2022-11-27T12:20:51.460Z,79.32
2022-11-27T12:23:23.902Z,81.14
2022-11-27T12:26:07.785Z,79.98
2022-11-27T12:29:02.091Z,75.95
2022-11-27T12:31:39.348Z,77.93
2022-11-27T12:34:29.988Z,79.64
2022-11-27T12:37:26.587Z,81.06
2022-11-27T12:40:05.151Z,79.60
2022-11-27T12:42:56.902Z,82.28
2022-11-27T12:45:32.943Z,80.51
2022-11-27T12:48:07.048Z,79.35
2022-11-27T12:50:42.346Z,76.44
2022-11-27T12:53:35.997Z,80.54
2022-11-27T12:56:24.524Z,82.69
2022-11-27T12:59:03.992Z,82.13
2022-11-27T13:01:55.964Z,79.86
2022-11-27T13:04:30.342Z,78.93
2022-11-27T13:07:06.510Z,79.50
2022-11-27T13:09:50.199Z,81.01
2022-11-27T13:12:29.432Z,80.05
2022-11-27T13:15:02.833Z,78.17
2022-11-27T13:17:41.351Z,79.41
2022-11-27T13:20:23.247Z,81.16
2022-11-27T13:22:50.717Z,78.78
2022-11-27T13:25:17.332Z,80.14
2022-11-27T13:27:47.216Z,79.84
2022-11-27T13:30:23.837Z,81.59
2022-11-27T13:32:59.677Z,81.38
2022-11-27T13:35:30.377Z,80.51
2022-11-27T13:38:06.729Z,80.77
2022-11-27T13:40:40.880Z,80.86
2022-11-27T13:43:28.731Z,80.15
2022-11-27T13:46:07.802Z,81.49
2022-11-27T13:48:46.886Z,81.34
2022-11-27T13:51:23.871Z,81.50
2022-11-27T13:53:50.347Z,83.08
2022-11-27T13:56:29.952Z,85.50
2022-11-27T13:58:56.506Z,84.50
2022-11-27T14:01:24.621Z,86.12
2022-11-27T14:03:52.073Z,85.79
2022-11-27T14:06:30.927Z,86.44
2022-11-27T14:09:05.889Z,83.50
2022-11-27T14:11:44.225Z,85.56
2022-11-27T14:14:17.276Z,86.29
2022-11-27T14:16:53.955Z,85.31
2022-11-27T14:19:38.177Z,86.29
2022-11-27T14:23:09.977Z,87.11
2022-11-27T14:25:33.868Z,86.23
2022-11-27T14:28:10.906Z,87.56
2022-11-27T14:30:52.251Z,87.21
2022-11-27T14:33:21.668Z,85.55
2022-11-27T14:35:50.808Z,86.56
2022-11-27T14:38:17.413Z,89.28
2022-11-27T14:40:44.622Z,90.76
2022-11-27T14:43:16.070Z,90.33
2022-11-27T14:45:49.974Z,90.76
2022-11-27T14:48:25.223Z,92.43
2022-11-27T14:50:53.969Z,92.13
2022-11-27T14:53:22.843Z,90.32
2022-11-27T14:55:52.641Z,91.18
2022-11-27T14:58:26.628Z,90.23
2022-11-27T15:01:05.682Z,91.63
2022-11-27T15:03:33.596Z,91.12
2022-11-27T15:06:02.908Z,92.16
2022-11-27T15:08:34.488Z,94.59
2022-11-27T15:11:03.225Z,94.08
2022-11-27T15:13:33.342Z,95.71
2022-11-27T15:16:14.555Z,94.32
2022-11-27T15:18:42.662Z,94.77
2022-11-27T15:21:18.017Z,93.80
2022-11-27T15:23:46.663Z,93.24
2022-11-27T15:26:19.965Z,92.55
2022-11-27T15:28:54.331Z,89.32
2022-11-27T15:31:27.126Z,88.12
2022-11-27T15:34:04.891Z,88.17
2022-11-27T15:36:56.660Z,85.52
2022-11-27T15:39:36.521Z,84.94
2022-11-27T15:42:08.709Z,87.32
2022-11-27T15:44:35.389Z,89.18
2022-11-27T15:47:04.102Z,91.19
2022-11-27T15:49:30.749Z,93.97
2022-11-27T15:51:57.553Z,92.65
2022-11-27T15:54:24.812Z,92.51
2022-11-27T15:56:51.618Z,87.25
2022-11-27T15:59:20.492Z,86.81
2022-11-27T16:01:47.199Z,85.20
2022-11-27T16:04:13.714Z,87.41
2022-11-27T16:06:40.233Z,88.84
2022-11-27T16:09:07.098Z,88.85
2022-11-27T16:11:33.722Z,87.62
2022-11-27T16:14:00.315Z,91.22
2022-11-27T16:16:27.246Z,94.26
2022-11-27T16:19:00.765Z,92.42
2022-11-27T16:21:30.777Z,91.50
2022-11-27T16:24:00.288Z,93.17
2022-11-27T16:26:28.033Z,91.94
2022-11-27T16:28:54.582Z,90.21
2022-11-27T16:31:22.031Z,92.88
2022-11-27T16:33:48.748Z,92.27
2022-11-27T16:36:21.578Z,90.89
2022-11-27T16:38:48.698Z,93.19
2022-11-27T16:41:17.601Z,95.00
2022-11-27T16:43:47.103Z,95.04
2022-11-27T16:46:23.664Z,93.54
2022-11-27T16:48:50.646Z,94.10
2022-11-27T16:51:21.733Z,95.48
2022-11-27T16:53:50.978Z,93.32
2022-11-27T16:56:20.300Z,91.76
2022-11-27T16:58:48.605Z,90.95
2022-11-27T17:01:22.133Z,94.43
2022-11-27T17:03:50.589Z,93.53
2022-11-27T17:06:20.230Z,91.94
2022-11-27T17:08:47.437Z,96.34
2022-11-27T17:11:20.234Z,95.40
2022-11-27T17:13:48.189Z,92.83
2022-11-27T17:16:15.652Z,94.77
2022-11-27T17:18:45.501Z,95.01
2022-11-27T17:21:27.321Z,95.21
2022-11-27T17:23:56.423Z,98.47
2022-11-27T17:26:24.824Z,95.79
2022-11-27T17:28:51.606Z,94.97
2022-11-27T17:31:20.415Z,94.97
2022-11-27T17:33:47.683Z,88.88
2022-11-27T17:36:15.089Z,96.19
2022-11-27T17:38:41.674Z,92.78
2022-11-27T17:41:10.705Z,88.79
2022-11-27T17:43:38.404Z,88.01
2022-11-27T17:46:09.411Z,84.80
2022-11-27T17:48:36.189Z,80.77
2022-11-27T17:51:04.126Z,82.40
2022-11-27T17:53:32.585Z,83.10
2022-11-27T17:56:07.252Z,84.42
2022-11-27T17:58:34.388Z,78.74
2022-11-27T18:01:02.817Z,80.53
2022-11-27T18:03:30.049Z,83.69
2022-11-27T18:05:57.146Z,85.33
2022-11-27T18:08:24.135Z,81.82
2022-11-27T18:10:50.694Z,85.59
2022-11-27T18:13:17.999Z,82.47
2022-11-27T18:15:44.530Z,88.39
2022-11-27T18:18:11.095Z,86.96
2022-11-27T18:20:37.560Z,89.24
2022-11-27T18:23:04.698Z,84.14
2022-11-27T18:25:31.560Z,83.96
2022-11-27T18:27:58.677Z,77.54
2022-11-27T18:30:25.628Z,78.07
2022-11-27T18:32:52.125Z,76.09
2022-11-27T18:35:18.672Z,76.34
2022-11-27T18:37:45.188Z,75.20
2022-11-27T18:40:12.796Z,75.00
2022-11-27T18:42:39.687Z,74.64
2022-11-27T18:45:16.059Z,74.01
2022-11-27T18:47:52.049Z,78.27
2022-11-27T18:50:18.520Z,79.22
2022-11-27T18:52:45.217Z,82.27
2022-11-27T18:55:12.506Z,81.80
2022-11-27T18:57:39.158Z,82.43
2022-11-27T19:00:06.547Z,81.59
2022-11-27T19:02:33.583Z,81.46
2022-11-27T19:05:00.157Z,78.18
2022-11-27T19:07:28.064Z,79.98
2022-11-27T19:09:54.608Z,81.56
2022-11-27T19:12:21.092Z,79.59
2022-11-27T19:14:48.593Z,82.97
2022-11-27T19:17:15.300Z,84.58
2022-11-27T19:19:54.177Z,83.35
2022-11-27T19:22:21.445Z,81.57
2022-11-27T19:24:49.243Z,83.83
2022-11-27T19:27:15.832Z,84.14
2022-11-27T19:29:42.545Z,79.20
2022-11-27T19:32:09.408Z,81.23
2022-11-27T19:34:36.245Z,82.65
2022-11-27T19:37:02.717Z,83.26
2022-11-27T19:39:29.228Z,84.63
2022-11-27T19:41:57.692Z,85.35
2022-11-27T19:44:24.273Z,84.14
2022-11-27T19:46:50.821Z,85.99
2022-11-27T19:49:18.666Z,84.45
2022-11-27T19:51:45.899Z,86.20
2022-11-27T19:54:16.885Z,85.57
2022-11-27T19:56:43.525Z,81.94
2022-11-27T19:59:12.244Z,82.92
2022-11-27T20:01:40.707Z,81.67
2022-11-27T20:04:09.365Z,82.76
2022-11-27T20:06:35.929Z,84.34
2022-11-27T20:09:04.723Z,86.29
2022-11-27T20:11:35.606Z,87.48
2022-11-27T20:14:05.173Z,88.70
2022-11-27T20:16:34.553Z,89.21
2022-11-27T20:19:02.242Z,89.50
2022-11-27T20:21:28.709Z,92.04
2022-11-27T20:23:57.108Z,90.07
2022-11-27T20:26:26.495Z,91.57
2022-11-27T20:28:54.399Z,91.82
2022-11-27T20:31:29.418Z,93.37
2022-11-27T20:33:58.247Z,93.41
2022-11-27T20:36:25.331Z,93.44
2022-11-27T20:38:55.415Z,92.47
2022-11-27T20:41:23.752Z,92.72
2022-11-27T20:43:54.613Z,94.85
2022-11-27T20:46:21.457Z,95.04
2022-11-27T20:48:50.463Z,95.59
2022-11-27T20:51:20.028Z,93.18
2022-11-27T20:53:48.387Z,93.32
2022-11-27T20:56:17.009Z,93.84
2022-11-27T20:58:45.168Z,93.82
2022-11-27T21:01:17.827Z,96.12
2022-11-27T21:03:46.173Z,94.46
2022-11-27T21:06:14.200Z,92.68
2022-11-27T21:08:40.979Z,93.32
2022-11-27T21:11:29.619Z,92.59
2022-11-27T21:14:09.484Z,91.78
2022-11-27T21:16:41.787Z,93.93
2022-11-27T21:19:14.188Z,91.51
2022-11-27T21:21:40.676Z,90.49
2022-11-27T21:24:07.569Z,90.81
2022-11-27T21:26:35.038Z,91.00
2022-11-27T21:29:03.319Z,93.00
2022-11-27T21:31:37.066Z,93.76
2022-11-27T21:34:05.704Z,91.98
2022-11-27T21:36:36.054Z,93.03
2022-11-27T21:39:07.041Z,93.79
2022-11-27T21:41:34.787Z,92.95
2022-11-27T21:44:02.508Z,93.86
2022-11-27T21:46:29.906Z,91.91
2022-11-27T21:48:59.149Z,91.90
2022-11-27T21:51:27.010Z,93.01
2022-11-27T21:53:55.560Z,91.47
2022-11-27T21:56:24.630Z,91.09
2022-11-27T21:58:52.512Z,94.57
2022-11-27T22:01:22.686Z,94.00
2022-11-27T22:03:54.597Z,91.32
2022-11-27T22:06:22.176Z,92.78
2022-11-27T22:08:49.941Z,92.21
2022-11-27T22:11:19.899Z,93.74
2022-11-27T22:13:46.910Z,93.18
2022-11-27T22:16:19.719Z,92.65
2022-11-27T22:18:47.580Z,91.94
2022-11-27T22:21:14.904Z,93.78
2022-11-27T22:23:42.834Z,92.36
2022-11-27T22:26:16.377Z,93.67
2022-11-27T22:28:43.431Z,95.28
2022-11-27T22:31:19.609Z,94.01
2022-11-27T22:33:47.062Z,93.67
2022-11-27T22:36:15.004Z,94.43
2022-11-27T22:38:42.440Z,93.97
2022-11-27T22:41:09.570Z,95.89
2022-11-27T22:43:37.204Z,94.13
2022-11-27T22:46:05.715Z,92.63
2022-11-27T22:48:32.835Z,93.15
2022-11-27T22:50:59.748Z,93.11
2022-11-27T22:53:26.437Z,93.25
2022-11-27T22:55:52.946Z,93.24
2022-11-27T22:58:19.585Z,94.88
2022-11-27T23:00:46.450Z,94.76
2022-11-27T23:03:12.994Z,95.71
2022-11-27T23:05:44.222Z,94.71
2022-11-27T23:08:10.788Z,95.18
2022-11-27T23:10:38.932Z,95.27
2022-11-27T23:13:06.134Z,95.37
2022-11-27T23:15:33.171Z,95.20
2022-11-27T23:17:59.674Z,95.85
2022-11-27T23:20:26.169Z,96.71
2022-11-27T23:22:52.829Z,96.49
2022-11-27T23:25:19.297Z,96.59
2022-11-27T23:27:47.884Z,97.55
2022-11-27T23:30:15.590Z,98.77
2022-11-27T23:32:44.056Z,98.41
2022-11-27T23:35:11.384Z,98.69
2022-11-27T23:37:37.854Z,98.47
2022-11-27T23:40:05.233Z,98.23
2022-11-27T23:42:34.258Z,97.73
2022-11-27T23:45:00.882Z,97.15
2022-11-27T23:47:27.646Z,96.61
2022-11-27T23:49:54.299Z,96.90
2022-11-27T23:52:20.764Z,97.56
2022-11-27T23:54:47.290Z,99.20
2022-11-27T23:57:13.871Z,99.16
2022-11-27T23:59:40.341Z,100.00
